createdAt,value
2017-12-15T00:01:38.109Z,2.10
2017-12-15T00:04:05.652Z,2.10
2017-12-15T00:06:33.943Z,2.10
2017-12-15T00:09:01.499Z,2.10
2017-12-15T00:11:29.030Z,2.10
2017-12-15T00:13:56.586Z,2.00
2017-12-15T00:16:24.114Z,2.00
2017-12-15T00:18:52.398Z,1.90
2017-12-15T00:21:19.957Z,1.90
2017-12-15T00:23:47.478Z,1.90
2017-12-15T00:26:15.028Z,1.90
2017-12-15T00:28:42.563Z,1.90
2017-12-15T00:31:10.126Z,1.90
2017-12-15T00:33:37.647Z,1.80
2017-12-15T00:36:05.215Z,1.90
2017-12-15T00:38:32.738Z,1.90
2017-12-15T00:41:00.290Z,1.90
2017-12-15T00:43:27.814Z,1.80
2017-12-15T00:45:55.363Z,1.80
2017-12-15T00:48:22.883Z,1.80
2017-12-15T00:50:50.430Z,1.80
2017-12-15T00:53:17.961Z,1.80
2017-12-15T00:55:45.529Z,1.80
2017-12-15T00:58:13.822Z,1.90
2017-12-15T01:00:41.374Z,1.90
2017-12-15T01:03:09.661Z,1.90
2017-12-15T01:05:37.214Z,1.90
2017-12-15T01:08:05.506Z,1.80
2017-12-15T01:10:33.054Z,1.80
2017-12-15T01:13:00.579Z,1.90
2017-12-15T01:15:28.123Z,1.90
2017-12-15T01:17:55.645Z,2.00
2017-12-15T01:20:23.198Z,1.90
2017-12-15T01:22:50.743Z,2.00
2017-12-15T01:25:19.237Z,2.10
2017-12-15T01:27:47.185Z,2.00
2017-12-15T01:30:14.779Z,2.00
2017-12-15T01:32:42.302Z,2.10
2017-12-15T01:35:10.613Z,2.10
2017-12-15T01:37:38.160Z,2.10
2017-12-15T01:40:06.466Z,2.20
2017-12-15T01:42:34.000Z,2.10
2017-12-15T01:45:01.553Z,2.20
2017-12-15T01:47:29.835Z,2.20
2017-12-15T01:49:58.132Z,2.30
2017-12-15T01:52:26.450Z,2.30
2017-12-15T01:54:53.975Z,2.30
2017-12-15T01:57:21.528Z,2.30
2017-12-15T01:59:49.062Z,2.30
2017-12-15T02:02:17.371Z,2.30
2017-12-15T02:04:44.893Z,2.30
2017-12-15T02:07:13.211Z,2.40
2017-12-15T02:09:40.735Z,2.40
2017-12-15T02:12:09.046Z,2.50
2017-12-15T02:14:36.574Z,2.50
2017-12-15T02:17:04.139Z,2.60
2017-12-15T02:19:31.669Z,2.70
2017-12-15T02:21:59.994Z,2.60
2017-12-15T02:24:27.521Z,2.60
2017-12-15T02:26:55.840Z,2.60
2017-12-15T02:29:23.362Z,2.60
2017-12-15T02:31:51.689Z,2.60
2017-12-15T02:34:19.211Z,2.60
2017-12-15T02:36:46.738Z,2.60
2017-12-15T02:39:14.301Z,2.60
2017-12-15T02:41:41.823Z,2.60
2017-12-15T02:44:09.367Z,2.60
2017-12-15T02:46:36.901Z,2.60
2017-12-15T02:49:04.454Z,2.60
2017-12-15T02:51:32.743Z,2.60
2017-12-15T02:54:00.292Z,2.50
2017-12-15T02:56:28.588Z,2.60
2017-12-15T02:58:56.134Z,2.50
2017-12-15T03:01:23.670Z,2.50
2017-12-15T03:03:52.000Z,2.60
2017-12-15T03:06:19.531Z,2.50
2017-12-15T03:08:47.846Z,2.60
2017-12-15T03:11:19.045Z,2.60
2017-12-15T03:13:47.683Z,2.40
2017-12-15T03:16:15.532Z,2.40
2017-12-15T03:18:43.056Z,2.30
2017-12-15T03:21:11.375Z,2.10
2017-12-15T03:23:38.934Z,2.10
2017-12-15T03:26:06.455Z,2.00
2017-12-15T03:28:34.768Z,2.00
2017-12-15T03:31:02.302Z,2.00
2017-12-15T03:33:29.877Z,1.90
2017-12-15T03:35:57.405Z,2.00
2017-12-15T03:38:25.694Z,2.00
2017-12-15T03:40:54.002Z,2.00
2017-12-15T03:43:21.521Z,2.00
2017-12-15T03:45:49.070Z,2.10
2017-12-15T03:48:17.371Z,2.20
2017-12-15T03:50:44.926Z,2.20
2017-12-15T03:53:13.224Z,2.30
2017-12-15T03:55:40.770Z,2.20
2017-12-15T03:58:08.298Z,2.30
2017-12-15T04:00:35.851Z,2.40
2017-12-15T04:03:03.387Z,2.40
2017-12-15T04:05:30.932Z,2.40
2017-12-15T04:07:58.452Z,2.30
2017-12-15T04:10:26.779Z,2.30
2017-12-15T04:12:54.304Z,2.30
2017-12-15T04:15:21.858Z,2.30
2017-12-15T04:17:49.379Z,2.30
2017-12-15T04:20:16.938Z,2.40
2017-12-15T04:22:44.463Z,2.40
2017-12-15T04:25:12.014Z,2.40
2017-12-15T04:27:39.539Z,2.40
2017-12-15T04:30:07.854Z,2.40
2017-12-15T04:32:35.402Z,2.40
2017-12-15T04:35:02.954Z,2.40
2017-12-15T04:37:30.479Z,2.40
2017-12-15T04:39:58.033Z,2.40
2017-12-15T04:42:25.562Z,2.40
2017-12-15T04:44:53.090Z,2.40
2017-12-15T04:47:20.642Z,2.30
2017-12-15T04:49:48.937Z,2.40
2017-12-15T04:52:16.498Z,2.40
2017-12-15T04:54:44.032Z,2.40
2017-12-15T04:57:12.351Z,2.40
2017-12-15T04:59:40.126Z,2.40
2017-12-15T05:02:07.673Z,2.40
2017-12-15T05:04:35.191Z,2.40
2017-12-15T05:07:03.501Z,2.40
2017-12-15T05:09:31.036Z,2.40
2017-12-15T05:11:59.349Z,2.40
2017-12-15T05:14:26.886Z,2.40
2017-12-15T05:16:54.450Z,2.40
2017-12-15T05:19:21.987Z,2.40
2017-12-15T05:21:50.303Z,2.40
2017-12-15T05:24:17.839Z,2.40
2017-12-15T05:26:45.386Z,2.40
2017-12-15T05:29:13.682Z,2.40
2017-12-15T05:31:41.227Z,2.40
2017-12-15T05:34:09.519Z,2.50
2017-12-15T05:36:37.067Z,2.40
2017-12-15T05:39:04.598Z,2.50
2017-12-15T05:41:32.141Z,2.40
2017-12-15T05:43:59.948Z,2.40
2017-12-15T05:46:27.534Z,2.40
2017-12-15T05:48:55.063Z,2.40
2017-12-15T05:51:23.371Z,2.50
2017-12-15T05:53:51.062Z,2.50
2017-12-15T05:56:18.611Z,2.50
2017-12-15T05:58:46.135Z,2.50
2017-12-15T06:01:13.697Z,2.40
2017-12-15T06:03:41.226Z,2.40
2017-12-15T06:06:08.786Z,2.40
2017-12-15T06:08:36.318Z,2.40
2017-12-15T06:11:03.868Z,2.40
2017-12-15T06:13:31.395Z,2.40
2017-12-15T06:15:58.947Z,2.30
2017-12-15T06:18:26.648Z,2.30
2017-12-15T06:20:55.645Z,2.30
2017-12-15T06:23:23.610Z,2.30
2017-12-15T06:25:51.182Z,2.30
2017-12-15T06:28:18.705Z,2.30
2017-12-15T06:51:29.530Z,2.00
2017-12-15T06:53:57.055Z,2.00
2017-12-15T06:56:25.370Z,2.00
2017-12-15T06:58:52.913Z,2.00
2017-12-15T07:01:20.478Z,2.00
2017-12-15T07:03:48.008Z,2.00
2017-12-15T07:06:16.320Z,1.90
2017-12-15T07:08:43.850Z,1.90
2017-12-15T07:11:12.162Z,1.90
2017-12-15T07:13:39.689Z,1.90
2017-12-15T07:16:08.015Z,1.90
2017-12-15T07:18:35.540Z,1.90
2017-12-15T07:21:03.095Z,2.00
2017-12-15T07:23:30.628Z,2.00
2017-12-15T07:25:58.175Z,2.00
2017-12-15T07:28:25.702Z,2.00
2017-12-15T07:30:53.258Z,2.00
2017-12-15T07:33:20.787Z,2.00
2017-12-15T07:35:49.096Z,2.00
2017-12-15T07:38:16.626Z,2.00
2017-12-15T07:40:44.171Z,2.10
2017-12-15T07:43:12.495Z,2.10
2017-12-15T07:45:40.778Z,2.10
2017-12-15T07:48:08.330Z,2.10
2017-12-15T07:50:35.859Z,2.10
2017-12-15T07:53:03.413Z,2.10
2017-12-15T07:55:31.702Z,2.20
2017-12-15T07:57:59.247Z,2.20
2017-12-15T08:00:27.536Z,2.20
2017-12-15T08:02:55.100Z,2.20
2017-12-15T08:05:22.622Z,2.20
2017-12-15T08:07:50.188Z,2.30
2017-12-15T08:10:17.712Z,2.30
2017-12-15T08:12:45.255Z,2.40
2017-12-15T08:15:12.771Z,2.40
2017-12-15T08:17:41.085Z,2.40
2017-12-15T08:20:08.619Z,2.40
2017-12-15T08:22:36.928Z,2.40
2017-12-15T08:25:04.470Z,2.40
2017-12-15T08:27:32.022Z,2.40
2017-12-15T08:29:59.555Z,2.40
2017-12-15T08:32:27.874Z,2.50
2017-12-15T08:34:55.402Z,2.50
2017-12-15T08:37:23.722Z,2.50
2017-12-15T08:39:51.242Z,2.50
2017-12-15T08:42:19.569Z,2.50
2017-12-15T08:44:47.105Z,2.50
2017-12-15T08:47:14.667Z,2.50
2017-12-15T08:49:42.194Z,2.50
2017-12-15T08:52:10.515Z,2.50
2017-12-15T08:54:38.041Z,2.50
2017-12-15T08:57:06.370Z,2.50
2017-12-15T08:59:33.900Z,2.50
2017-12-15T09:02:01.451Z,2.50
2017-12-15T09:04:28.979Z,2.50
2017-12-15T09:06:57.621Z,2.40
2017-12-15T09:09:25.144Z,2.40
2017-12-15T09:11:52.699Z,2.50
2017-12-15T09:14:20.986Z,2.40
2017-12-15T09:16:48.538Z,2.40
2017-12-15T09:19:16.830Z,2.50
2017-12-15T09:21:44.379Z,2.50
2017-12-15T09:24:11.946Z,2.50
2017-12-15T09:26:40.242Z,2.60
2017-12-15T09:29:07.774Z,2.60
2017-12-15T09:31:35.321Z,2.60
2017-12-15T09:34:03.610Z,2.50
2017-12-15T09:36:31.927Z,2.60
2017-12-15T09:38:59.486Z,2.60
2017-12-15T09:41:27.036Z,2.50
2017-12-15T09:43:54.564Z,2.50
2017-12-15T09:46:22.120Z,2.50
2017-12-15T09:48:50.419Z,2.50
2017-12-15T09:51:17.979Z,2.50
2017-12-15T09:53:45.504Z,2.60
2017-12-15T09:56:13.799Z,2.60
2017-12-15T09:58:42.110Z,2.60
2017-12-15T10:01:09.636Z,2.60
2017-12-15T10:03:37.942Z,2.70
2017-12-15T10:06:05.487Z,2.70
2017-12-15T10:08:33.043Z,2.60
2017-12-15T10:11:00.566Z,2.50
2017-12-15T10:13:28.107Z,2.60
2017-12-15T10:15:55.640Z,2.50
2017-12-15T10:18:23.197Z,2.50
2017-12-15T10:20:50.715Z,2.40
2017-12-15T10:23:19.029Z,2.50
2017-12-15T10:25:46.554Z,2.40
2017-12-15T10:28:14.870Z,2.60
2017-12-15T10:30:42.405Z,2.50
2017-12-15T10:33:09.955Z,2.40
2017-12-15T10:35:38.238Z,2.40
2017-12-15T10:38:06.538Z,2.40
2017-12-15T10:40:34.055Z,2.40
2017-12-15T10:43:01.605Z,2.40
2017-12-15T10:45:29.121Z,2.40
2017-12-15T10:47:56.668Z,2.40
2017-12-15T10:50:24.966Z,2.40
2017-12-15T10:52:52.517Z,2.40
2017-12-15T10:55:20.038Z,2.40
2017-12-15T10:57:48.359Z,2.50
2017-12-15T11:00:15.894Z,2.50
2017-12-15T11:02:43.434Z,2.60
2017-12-15T11:05:11.723Z,2.70
2017-12-15T11:07:40.039Z,2.80
2017-12-15T11:10:07.560Z,2.70
2017-12-15T11:12:35.109Z,2.80
2017-12-15T11:15:03.407Z,2.90
2017-12-15T11:17:30.963Z,2.90
2017-12-15T11:19:58.494Z,3.10
2017-12-15T11:22:26.050Z,3.10
2017-12-15T11:24:53.583Z,3.20
2017-12-15T11:27:21.128Z,3.40
2017-12-15T11:29:48.649Z,3.60
2017-12-15T11:32:16.964Z,3.60
2017-12-15T11:34:44.495Z,3.60
2017-12-15T11:37:12.034Z,3.70
2017-12-15T11:39:40.322Z,3.80
2017-12-15T11:42:08.635Z,3.70
2017-12-15T11:44:36.158Z,3.60
2017-12-15T11:47:04.469Z,3.40
2017-12-15T11:49:31.992Z,3.40
2017-12-15T11:52:00.306Z,3.40
2017-12-15T11:54:27.837Z,3.40
2017-12-15T11:56:55.387Z,3.40
2017-12-15T11:59:23.674Z,3.50
2017-12-15T12:01:51.235Z,3.50
2017-12-15T12:04:18.768Z,3.50
2017-12-15T12:06:46.294Z,3.50
2017-12-15T12:09:13.850Z,3.50
2017-12-15T12:11:41.375Z,3.70
2017-12-15T12:14:08.922Z,3.80
2017-12-15T12:16:36.450Z,3.90
2017-12-15T12:19:04.001Z,3.90
2017-12-15T12:21:31.531Z,4.00
2017-12-15T12:23:59.074Z,4.00
2017-12-15T12:26:26.603Z,4.00
2017-12-15T12:28:54.925Z,4.10
2017-12-15T12:31:22.450Z,4.10
2017-12-15T12:33:50.780Z,4.30
2017-12-15T12:36:18.381Z,4.20
2017-12-15T12:38:46.636Z,4.30
2017-12-15T12:41:14.159Z,4.30
2017-12-15T12:43:41.708Z,4.20
2017-12-15T12:46:09.231Z,4.20
2017-12-15T12:48:37.560Z,4.10
2017-12-15T12:51:05.084Z,4.10
2017-12-15T12:53:33.401Z,4.20
2017-12-15T12:56:00.911Z,4.20
2017-12-15T12:58:29.227Z,4.40
2017-12-15T13:00:56.752Z,4.40
2017-12-15T13:03:25.065Z,4.20
2017-12-15T13:05:52.595Z,4.20
2017-12-15T13:08:20.919Z,3.90
2017-12-15T13:10:48.447Z,3.90
2017-12-15T13:13:15.998Z,3.90
2017-12-15T13:15:43.523Z,3.90
2017-12-15T13:18:11.067Z,3.90
2017-12-15T13:20:38.582Z,3.90
2017-12-15T13:23:06.128Z,3.90
2017-12-15T13:25:34.421Z,4.00
2017-12-15T13:28:01.970Z,4.00
2017-12-15T13:30:29.495Z,4.20
2017-12-15T13:32:57.042Z,4.20
2017-12-15T13:35:24.618Z,4.30
2017-12-15T13:37:52.140Z,4.40
2017-12-15T13:40:19.662Z,4.30
2017-12-15T13:42:48.003Z,4.20
2017-12-15T13:45:15.532Z,4.20
2017-12-15T13:47:43.078Z,4.30
2017-12-15T13:50:10.598Z,4.20
2017-12-15T13:52:38.151Z,4.20
2017-12-15T13:55:05.685Z,4.20
2017-12-15T13:57:33.254Z,4.20
2017-12-15T14:00:00.803Z,4.10
2017-12-15T14:02:28.355Z,4.00
2017-12-15T14:04:55.890Z,4.00
2017-12-15T14:07:23.442Z,4.00
2017-12-15T14:09:50.994Z,4.10
2017-12-15T14:12:19.296Z,4.20
2017-12-15T14:14:46.846Z,4.20
2017-12-15T14:17:14.377Z,4.20
2017-12-15T14:19:41.930Z,4.10
2017-12-15T14:22:10.232Z,4.00
2017-12-15T14:24:38.546Z,3.90
2017-12-15T14:27:06.069Z,3.90
2017-12-15T14:29:34.388Z,3.90
2017-12-15T14:32:01.922Z,3.90
2017-12-15T14:34:29.471Z,3.80
2017-12-15T14:36:57.019Z,3.80
2017-12-15T14:39:25.336Z,3.80
2017-12-15T14:41:52.865Z,3.80
2017-12-15T14:44:21.182Z,3.90
2017-12-15T14:46:48.706Z,3.90
2017-12-15T14:49:16.265Z,3.90
2017-12-15T14:51:43.794Z,4.00
2017-12-15T14:54:11.346Z,3.90
2017-12-15T14:56:38.883Z,3.90
2017-12-15T14:59:06.432Z,3.80
2017-12-15T15:01:33.970Z,3.70
2017-12-15T15:04:01.527Z,3.70
2017-12-15T15:06:29.070Z,3.60
2017-12-15T15:08:57.396Z,3.60
2017-12-15T15:11:24.923Z,3.60
2017-12-15T15:13:52.483Z,3.60
2017-12-15T15:16:20.006Z,3.60
2017-12-15T15:18:47.584Z,3.50
2017-12-15T15:21:15.879Z,3.50
2017-12-15T15:23:43.435Z,3.50
2017-12-15T15:26:10.963Z,3.50
2017-12-15T15:28:38.515Z,3.40
2017-12-15T15:31:06.050Z,3.30
2017-12-15T15:33:33.685Z,3.30
2017-12-15T15:36:01.211Z,3.40
2017-12-15T15:38:29.529Z,3.30
2017-12-15T15:40:57.062Z,3.30
2017-12-15T15:43:25.383Z,3.10
2017-12-15T15:45:52.909Z,3.10
2017-12-15T15:48:20.457Z,3.10
2017-12-15T15:50:47.983Z,3.10
2017-12-15T15:53:15.529Z,3.10
2017-12-15T15:55:43.050Z,3.00
2017-12-15T15:58:10.602Z,3.00
2017-12-15T16:00:38.130Z,3.00
2017-12-15T16:03:05.691Z,3.00
2017-12-15T16:05:33.222Z,3.00
2017-12-15T16:08:00.774Z,3.00
2017-12-15T16:10:28.303Z,3.00
2017-12-15T16:12:55.858Z,3.00
2017-12-15T16:15:23.404Z,3.00
2017-12-15T16:17:51.698Z,3.10
2017-12-15T16:20:19.251Z,3.10
2017-12-15T16:22:47.551Z,3.10
2017-12-15T16:25:15.111Z,3.10
2017-12-15T16:27:42.638Z,3.10
2017-12-15T16:30:10.948Z,3.10
2017-12-15T16:32:38.474Z,3.10
2017-12-15T16:35:06.795Z,3.20
2017-12-15T16:37:34.325Z,3.20
2017-12-15T16:40:01.873Z,3.20
2017-12-15T16:42:30.167Z,3.20
2017-12-15T16:44:57.723Z,3.10
2017-12-15T16:47:25.260Z,3.10
2017-12-15T16:49:53.583Z,3.10
2017-12-15T16:52:21.107Z,3.10
2017-12-15T16:54:49.423Z,3.10
2017-12-15T16:57:16.958Z,3.10
2017-12-15T16:59:44.512Z,3.10
2017-12-15T17:02:12.040Z,3.10
2017-12-15T17:04:39.586Z,3.20
2017-12-15T17:07:07.118Z,3.20
2017-12-15T17:09:34.691Z,3.20
2017-12-15T17:12:02.219Z,3.20
2017-12-15T17:14:29.775Z,3.20
2017-12-15T17:16:57.307Z,3.30
2017-12-15T17:19:24.867Z,3.30
2017-12-15T17:21:53.167Z,3.30
2017-12-15T17:24:20.721Z,3.30
2017-12-15T17:26:48.254Z,3.30
2017-12-15T17:29:15.812Z,3.30
2017-12-15T17:31:43.347Z,3.30
2017-12-15T17:34:10.891Z,3.30
2017-12-15T17:36:38.423Z,3.30
2017-12-15T17:39:05.985Z,3.30
2017-12-15T17:41:33.513Z,3.40
2017-12-15T17:44:01.075Z,3.30
2017-12-15T17:46:28.614Z,3.40
2017-12-15T17:48:56.160Z,3.30
2017-12-15T17:51:23.695Z,3.30
2017-12-15T17:53:51.261Z,3.30
2017-12-15T17:56:18.795Z,3.30
2017-12-15T17:58:46.360Z,3.30
2017-12-15T18:01:13.880Z,3.30
2017-12-15T18:03:41.422Z,3.30
2017-12-15T18:06:08.957Z,3.30
2017-12-15T18:08:36.515Z,3.30
2017-12-15T18:11:04.798Z,3.30
2017-12-15T18:13:32.345Z,3.30
2017-12-15T18:15:59.871Z,3.30
2017-12-15T18:18:28.183Z,3.30
2017-12-15T18:20:55.709Z,3.30
2017-12-15T18:23:24.002Z,3.30
2017-12-15T18:25:51.570Z,3.30
2017-12-15T18:28:19.118Z,3.30
2017-12-15T18:30:47.434Z,3.30
2017-12-15T18:33:14.964Z,3.30
2017-12-15T18:35:42.529Z,3.30
2017-12-15T18:38:10.079Z,3.30
2017-12-15T18:40:37.627Z,3.30
2017-12-15T18:43:05.957Z,3.30
2017-12-15T18:45:33.508Z,3.30
2017-12-15T18:48:01.055Z,3.30
2017-12-15T18:50:28.616Z,3.30
2017-12-15T18:52:56.138Z,3.30
2017-12-15T18:55:24.451Z,3.30
2017-12-15T18:57:51.976Z,3.30
2017-12-15T19:00:20.296Z,3.30
2017-12-15T19:02:47.815Z,3.30
2017-12-15T19:05:16.175Z,3.30
2017-12-15T19:07:43.695Z,3.30
2017-12-15T19:10:11.253Z,3.30
2017-12-15T19:12:38.774Z,3.30
2017-12-15T19:15:07.099Z,3.30
2017-12-15T19:17:34.629Z,3.30
2017-12-15T19:20:02.179Z,3.30
2017-12-15T19:22:30.475Z,3.20
2017-12-15T19:24:58.022Z,3.20
2017-12-15T19:27:25.552Z,3.20
2017-12-15T19:29:53.115Z,3.30
2017-12-15T19:32:21.415Z,3.20
2017-12-15T19:34:49.734Z,3.30
2017-12-15T19:37:17.269Z,3.20
2017-12-15T19:39:44.822Z,3.30
2017-12-15T19:42:12.347Z,3.30
2017-12-15T19:44:40.692Z,3.30
2017-12-15T19:47:08.219Z,3.30
2017-12-15T19:49:35.768Z,3.30
2017-12-15T19:52:04.055Z,3.30
2017-12-15T19:54:31.607Z,3.30
2017-12-15T19:56:59.127Z,3.40
2017-12-15T19:59:26.670Z,3.40
2017-12-15T20:01:54.205Z,3.40
2017-12-15T20:04:21.758Z,3.40
2017-12-15T20:06:49.296Z,3.40
2017-12-15T20:09:17.616Z,3.40
2017-12-15T20:11:45.149Z,3.40
2017-12-15T20:14:12.707Z,3.40
2017-12-15T20:16:40.238Z,3.40
2017-12-15T20:19:08.562Z,3.40
2017-12-15T20:21:36.087Z,3.40
2017-12-15T20:24:04.411Z,3.40
2017-12-15T20:26:31.946Z,3.40
2017-12-15T20:28:59.498Z,3.40
2017-12-15T20:31:27.026Z,3.40
2017-12-15T20:33:54.567Z,3.40
2017-12-15T20:36:22.111Z,3.30
2017-12-15T20:38:49.642Z,3.40
2017-12-15T20:41:17.196Z,3.40
2017-12-15T20:43:44.737Z,3.30
2017-12-15T20:46:13.046Z,3.20
2017-12-15T20:48:40.575Z,3.20
2017-12-15T20:51:08.890Z,3.10
2017-12-15T20:53:36.428Z,3.00
2017-12-15T20:56:03.989Z,3.00
2017-12-15T20:58:31.511Z,2.90
2017-12-15T21:00:59.079Z,2.70
2017-12-15T21:03:26.600Z,2.60
2017-12-15T21:05:54.161Z,2.50
2017-12-15T21:08:21.755Z,2.40
2017-12-15T21:10:49.300Z,2.40
2017-12-15T21:13:16.824Z,2.40
2017-12-15T21:15:44.374Z,2.40
2017-12-15T21:18:11.894Z,2.30
2017-12-15T21:20:40.211Z,2.30
2017-12-15T21:23:07.734Z,2.20
2017-12-15T21:25:36.059Z,2.30
2017-12-15T21:28:03.592Z,2.30
2017-12-15T21:30:31.134Z,2.30
2017-12-15T21:32:59.427Z,2.30
2017-12-15T21:35:27.744Z,2.30
2017-12-15T21:37:55.265Z,2.30
2017-12-15T21:40:23.570Z,2.30
2017-12-15T21:42:51.092Z,2.30
2017-12-15T21:45:19.403Z,2.40
2017-12-15T21:47:46.927Z,2.40
2017-12-15T21:50:15.239Z,2.40
2017-12-15T21:52:42.766Z,2.30
2017-12-15T21:55:11.079Z,2.40
2017-12-15T21:57:38.599Z,2.40
2017-12-15T22:00:06.911Z,2.40
2017-12-15T22:02:34.434Z,2.40
2017-12-15T22:05:02.744Z,2.50
2017-12-15T22:07:30.276Z,2.40
2017-12-15T22:09:58.603Z,2.40
2017-12-15T22:12:26.139Z,2.40
2017-12-15T22:14:53.689Z,2.40
2017-12-15T22:17:21.224Z,2.40
2017-12-15T22:19:49.533Z,2.30
2017-12-15T22:22:17.067Z,2.30
2017-12-15T22:24:45.389Z,2.30
2017-12-15T22:27:12.918Z,2.30
2017-12-15T22:29:40.464Z,2.40
2017-12-15T22:32:08.750Z,2.40
2017-12-15T22:34:36.300Z,2.40
2017-12-15T22:37:04.595Z,2.50
2017-12-15T22:39:32.156Z,2.50
2017-12-15T22:41:59.697Z,2.50
2017-12-15T22:44:27.979Z,2.50
2017-12-15T22:46:56.291Z,2.50
2017-12-15T22:49:23.822Z,2.50
2017-12-15T22:51:51.370Z,2.60
2017-12-15T22:54:19.671Z,2.60
2017-12-15T22:56:47.214Z,2.50
2017-12-15T22:59:15.502Z,2.60
2017-12-15T23:01:43.072Z,2.60
2017-12-15T23:04:10.606Z,2.60
2017-12-15T23:06:38.925Z,2.60
2017-12-15T23:09:06.454Z,2.60
2017-12-15T23:11:34.012Z,2.60
2017-12-15T23:14:01.542Z,2.70
2017-12-15T23:16:29.100Z,2.60
2017-12-15T23:18:57.425Z,2.50
2017-12-15T23:21:24.986Z,2.50
2017-12-15T23:23:52.519Z,2.50
2017-12-15T23:26:20.838Z,2.50
2017-12-15T23:28:48.362Z,2.50
2017-12-15T23:31:15.926Z,2.50
2017-12-15T23:33:43.459Z,2.50
2017-12-15T23:36:11.793Z,2.50
2017-12-15T23:38:39.354Z,2.50
2017-12-15T23:41:06.913Z,2.40
2017-12-15T23:43:34.501Z,2.50
2017-12-15T23:46:02.021Z,2.60
2017-12-15T23:48:29.553Z,2.40
2017-12-15T23:50:57.102Z,2.50
2017-12-15T23:53:25.406Z,2.40
2017-12-15T23:56:04.945Z,2.40
2017-12-15T23:58:32.470Z,2.40
